createdAt,value
2022-10-08T00:01:42.876Z,5.07
2022-10-08T00:04:13.229Z,1.15
2022-10-08T00:06:41.347Z,1.48
2022-10-08T00:09:09.398Z,1.92
2022-10-08T00:11:40.229Z,1.17
2022-10-08T00:14:09.515Z,0.77
2022-10-08T00:16:41.015Z,0.43
2022-10-08T00:19:12.856Z,2.00
2022-10-08T00:21:43.167Z,2.20
2022-10-08T00:24:14.656Z,1.83
2022-10-08T00:26:44.308Z,2.65
2022-10-08T00:29:15.116Z,0.50
2022-10-08T00:31:46.561Z,2.80
2022-10-08T00:34:16.535Z,2.40
2022-10-08T00:36:44.725Z,1.38
2022-10-08T00:39:15.568Z,0.95
2022-10-08T00:41:46.166Z,3.55
2022-10-08T00:44:54.352Z,0.88
2022-10-08T00:47:36.356Z,0.38
2022-10-08T00:50:07.796Z,1.55
2022-10-08T00:52:40.456Z,1.45
2022-10-08T00:55:10.019Z,0.13
2022-10-08T00:57:39.937Z,0.80
2022-10-08T01:00:11.537Z,2.20
2022-10-08T01:02:40.996Z,3.03
2022-10-08T01:05:10.326Z,1.02
2022-10-08T01:07:46.388Z,2.20
2022-10-08T01:10:25.544Z,0.85
2022-10-08T01:13:06.937Z,2.83
2022-10-08T01:15:41.840Z,5.63
2022-10-08T01:18:20.266Z,0.98
2022-10-08T01:20:58.636Z,1.40
2022-10-08T01:24:00.675Z,2.85
2022-10-08T01:26:54.077Z,1.67
2022-10-08T01:29:29.578Z,1.20
2022-10-08T01:32:03.526Z,1.27
2022-10-08T01:34:37.596Z,1.45
2022-10-08T01:37:08.858Z,1.30
2022-10-08T01:39:39.878Z,2.25
2022-10-08T01:42:11.055Z,3.50
2022-10-08T01:44:46.377Z,4.28
2022-10-08T01:47:19.386Z,1.25
2022-10-08T01:49:54.167Z,2.53
2022-10-08T01:52:27.557Z,7.38
2022-10-08T01:55:01.539Z,3.20
2022-10-08T01:57:32.184Z,0.38
2022-10-08T02:00:05.850Z,1.05
2022-10-08T02:02:41.118Z,1.73
2022-10-08T02:05:09.718Z,1.52
2022-10-08T02:07:41.398Z,3.15
2022-10-08T02:10:11.837Z,1.45
2022-10-08T02:12:40.988Z,1.52
2022-10-08T02:15:15.246Z,1.17
2022-10-08T02:17:54.806Z,0.95
2022-10-08T02:20:30.131Z,1.70
2022-10-08T02:23:02.958Z,2.00
2022-10-08T02:25:38.156Z,2.93
2022-10-08T02:28:11.617Z,4.70
2022-10-08T02:30:44.721Z,0.55
2022-10-08T02:33:16.776Z,1.23
2022-10-08T02:35:48.716Z,0.80
2022-10-08T02:38:22.256Z,1.73
2022-10-08T02:40:54.596Z,0.52
2022-10-08T02:43:27.326Z,0.77
2022-10-08T02:46:01.370Z,2.22
2022-10-08T02:48:31.918Z,0.88
2022-10-08T02:51:04.426Z,2.88
2022-10-08T02:53:33.894Z,1.27
2022-10-08T02:56:10.626Z,1.15
2022-10-08T02:58:39.058Z,5.90
2022-10-08T03:01:12.990Z,2.15
2022-10-08T03:03:46.614Z,2.22
2022-10-08T03:06:16.406Z,1.33
2022-10-08T03:08:49.135Z,5.57
2022-10-08T03:11:18.156Z,1.38
2022-10-08T03:13:49.415Z,3.00
2022-10-08T03:16:23.656Z,4.28
2022-10-08T03:18:53.629Z,1.55
2022-10-08T03:21:21.828Z,1.42
2022-10-08T03:23:50.307Z,1.15
2022-10-08T03:26:18.989Z,1.77
2022-10-08T03:28:47.304Z,0.30
2022-10-08T03:31:15.552Z,0.50
2022-10-08T03:33:45.045Z,0.75
2022-10-08T03:36:13.069Z,0.57
2022-10-08T03:38:41.168Z,0.40
2022-10-08T03:41:10.278Z,0.68
2022-10-08T03:43:38.380Z,2.08
2022-10-08T03:46:07.098Z,0.65
2022-10-08T03:48:35.546Z,0.30
2022-10-08T03:51:07.848Z,2.55
2022-10-08T03:53:37.816Z,0.70
2022-10-08T03:56:07.606Z,2.80
2022-10-08T03:58:36.136Z,0.90
2022-10-08T04:01:06.527Z,0.32
2022-10-08T04:03:35.115Z,2.05
2022-10-08T04:06:04.656Z,1.05
2022-10-08T04:08:33.856Z,0.77
2022-10-08T04:11:04.194Z,0.77
2022-10-08T04:13:32.776Z,1.08
2022-10-08T04:16:02.606Z,4.68
2022-10-08T04:18:31.207Z,1.13
2022-10-08T04:21:00.098Z,4.72
2022-10-08T04:23:31.856Z,0.77
2022-10-08T04:26:00.102Z,2.72
2022-10-08T04:28:28.337Z,2.78
2022-10-08T04:30:58.588Z,2.83
2022-10-08T04:33:27.206Z,3.53
2022-10-08T04:35:59.950Z,0.80
2022-10-08T04:38:29.776Z,1.50
2022-10-08T04:41:05.367Z,2.45
2022-10-08T04:43:33.713Z,1.98
2022-10-08T04:46:01.887Z,1.10
2022-10-08T04:48:30.526Z,3.80
2022-10-08T04:50:59.088Z,2.92
2022-10-08T04:53:27.596Z,2.63
2022-10-08T04:55:57.838Z,4.43
2022-10-08T04:58:27.006Z,3.45
2022-10-08T05:00:55.186Z,1.40
2022-10-08T05:03:23.335Z,2.28
2022-10-08T05:05:51.377Z,1.92
2022-10-08T05:08:19.457Z,2.33
2022-10-08T05:10:49.923Z,2.65
2022-10-08T05:13:19.365Z,2.53
2022-10-08T05:15:48.614Z,1.65
2022-10-08T05:18:16.978Z,3.45
2022-10-08T05:20:45.130Z,3.45
2022-10-08T05:23:13.301Z,6.63
2022-10-08T05:25:41.370Z,2.55
2022-10-08T05:28:09.545Z,1.75
2022-10-08T05:30:39.131Z,2.95
2022-10-08T05:33:07.251Z,3.35
2022-10-08T05:35:38.505Z,0.52
2022-10-08T05:38:06.830Z,1.00
2022-10-08T05:40:35.041Z,3.42
2022-10-08T05:43:03.217Z,2.22
2022-10-08T05:45:31.390Z,4.13
2022-10-08T05:48:01.010Z,1.48
2022-10-08T05:50:29.283Z,6.18
2022-10-08T05:52:57.650Z,5.80
2022-10-08T05:55:25.821Z,1.55
2022-10-08T05:57:54.302Z,2.28
2022-10-08T06:00:22.360Z,3.47
2022-10-08T06:02:51.046Z,0.30
2022-10-08T06:05:20.659Z,4.50
2022-10-08T06:07:48.768Z,1.92
2022-10-08T06:10:16.950Z,1.10
2022-10-08T06:12:45.372Z,1.80
2022-10-08T06:15:13.671Z,1.23
2022-10-08T06:17:41.800Z,1.58
2022-10-08T06:20:10.382Z,0.52
2022-10-08T06:22:39.851Z,1.08
2022-10-08T06:25:08.921Z,1.95
2022-10-08T06:27:36.949Z,0.32
2022-10-08T06:30:05.549Z,1.58
2022-10-08T06:32:33.714Z,3.22
2022-10-08T06:35:01.960Z,0.88
2022-10-08T06:37:30.070Z,7.22
2022-10-08T06:39:59.550Z,0.85
2022-10-08T06:42:27.638Z,1.55
2022-10-08T06:45:01.384Z,1.95
2022-10-08T06:47:30.681Z,1.73
2022-10-08T06:49:58.810Z,0.95
2022-10-08T06:52:26.991Z,4.18
2022-10-08T06:54:55.430Z,2.00
2022-10-08T06:57:25.160Z,1.70
2022-10-08T06:59:54.620Z,1.15
2022-10-08T07:02:22.783Z,1.38
2022-10-08T07:04:50.959Z,2.63
2022-10-08T07:07:19.586Z,0.80
2022-10-08T07:09:47.751Z,3.72
2022-10-08T07:12:15.868Z,3.65
2022-10-08T07:14:45.595Z,2.15
2022-10-08T07:17:13.729Z,5.25
2022-10-08T07:19:41.840Z,1.08
2022-10-08T07:22:09.986Z,2.75
2022-10-08T07:24:38.179Z,1.55
2022-10-08T07:27:06.367Z,3.92
2022-10-08T07:29:34.461Z,1.85
2022-10-08T07:32:04.071Z,0.65
2022-10-08T07:34:32.230Z,1.20
2022-10-08T07:37:00.400Z,0.47
2022-10-08T07:39:28.700Z,3.70
2022-10-08T07:41:57.090Z,5.05
2022-10-08T07:44:25.168Z,3.10
2022-10-08T07:46:54.190Z,3.55
2022-10-08T07:49:23.561Z,2.88
2022-10-08T07:51:51.880Z,3.22
2022-10-08T07:54:21.230Z,0.80
2022-10-08T07:56:49.529Z,2.15
2022-10-08T07:59:17.646Z,2.85
2022-10-08T08:01:45.910Z,0.45
2022-10-08T08:04:14.723Z,5.93
2022-10-08T08:06:45.781Z,2.53
2022-10-08T08:09:14.957Z,3.85
2022-10-08T08:11:43.320Z,3.25
2022-10-08T08:14:11.510Z,0.50
2022-10-08T08:16:40.358Z,1.83
2022-10-08T08:19:08.621Z,1.00
2022-10-08T08:21:39.261Z,4.03
2022-10-08T08:24:11.169Z,4.15
2022-10-08T08:26:41.470Z,0.75
2022-10-08T08:29:11.630Z,2.38
2022-10-08T08:31:43.500Z,4.72
2022-10-08T08:34:14.632Z,4.00
2022-10-08T08:36:46.126Z,2.55
2022-10-08T08:39:18.511Z,1.92
2022-10-08T08:41:56.770Z,3.28
2022-10-08T08:44:26.740Z,3.40
2022-10-08T08:46:58.230Z,2.78
2022-10-08T08:49:31.659Z,3.30
2022-10-08T08:52:02.254Z,4.15
2022-10-08T08:54:32.142Z,3.03
2022-10-08T08:57:12.249Z,3.33
2022-10-08T08:59:45.503Z,1.90
2022-10-08T09:02:21.000Z,2.63
2022-10-08T09:04:54.720Z,2.83
2022-10-08T09:09:59.049Z,3.13
2022-10-08T09:12:34.203Z,1.63
2022-10-08T09:15:04.174Z,4.20
2022-10-08T09:17:34.837Z,1.92
2022-10-08T09:20:03.559Z,0.80
2022-10-08T09:22:36.441Z,1.60
2022-10-08T09:25:08.059Z,2.17
2022-10-08T09:27:56.169Z,1.42
2022-10-08T09:30:32.552Z,5.63
2022-10-08T09:33:03.391Z,2.80
2022-10-08T09:35:34.031Z,2.67
2022-10-08T09:38:05.876Z,2.30
2022-10-08T09:40:35.830Z,6.90
2022-10-08T09:43:14.811Z,3.17
2022-10-08T09:45:45.360Z,7.05
2022-10-08T09:48:22.210Z,0.68
2022-10-08T09:50:56.059Z,1.52
2022-10-08T09:53:27.231Z,1.30
2022-10-08T09:56:00.443Z,2.03
2022-10-08T09:58:32.110Z,2.95
2022-10-08T10:01:06.010Z,3.42
2022-10-08T10:03:36.527Z,0.57
2022-10-08T10:06:04.960Z,4.38
2022-10-08T10:08:56.044Z,3.20
2022-10-08T10:11:32.779Z,1.13
2022-10-08T10:14:07.741Z,3.47
2022-10-08T10:16:40.426Z,0.68
2022-10-08T10:19:16.220Z,3.83
2022-10-08T10:21:52.720Z,2.08
2022-10-08T10:24:31.280Z,6.22
2022-10-08T10:27:08.721Z,3.50
2022-10-08T10:29:48.570Z,6.43
2022-10-08T10:32:23.832Z,1.52
2022-10-08T10:35:00.689Z,1.95
2022-10-08T10:37:37.000Z,3.17
2022-10-08T10:40:23.212Z,1.20
2022-10-08T10:43:00.839Z,2.60
2022-10-08T10:45:35.144Z,1.77
2022-10-08T10:48:05.122Z,3.08
2022-10-08T10:50:40.870Z,3.92
2022-10-08T10:53:20.210Z,1.20
2022-10-08T10:55:58.571Z,2.25
2022-10-08T10:58:39.351Z,2.10
2022-10-08T11:01:22.487Z,0.95
2022-10-08T11:04:03.719Z,2.23
2022-10-08T11:06:52.853Z,1.98
2022-10-08T11:09:33.137Z,4.32
2022-10-08T11:12:11.080Z,6.97
2022-10-08T11:14:52.019Z,1.85
2022-10-08T11:17:36.140Z,0.43
2022-10-08T11:20:23.520Z,3.83
2022-10-08T11:23:01.479Z,3.72
2022-10-08T11:25:55.245Z,3.25
2022-10-08T11:28:36.884Z,12.75
2022-10-08T11:31:19.245Z,7.18
2022-10-08T11:33:48.640Z,3.03
2022-10-08T11:36:29.248Z,5.10
2022-10-08T11:39:11.643Z,2.10
2022-10-08T11:41:47.502Z,2.53
2022-10-08T11:44:17.687Z,15.38
2022-10-08T11:46:47.070Z,4.03
2022-10-08T11:49:52.499Z,2.85
2022-10-08T11:52:20.700Z,3.78
2022-10-08T11:55:10.309Z,1.48
2022-10-08T11:58:06.056Z,0.52
2022-10-08T12:00:46.279Z,4.43
2022-10-08T12:03:30.249Z,3.05
2022-10-08T12:06:01.100Z,1.80
2022-10-08T12:08:52.779Z,0.50
2022-10-08T12:11:54.079Z,4.65
2022-10-08T12:14:32.879Z,2.75
2022-10-08T12:17:19.809Z,2.28
2022-10-08T12:20:19.922Z,1.35
2022-10-08T12:23:07.720Z,0.40
2022-10-08T12:25:39.650Z,2.28
2022-10-08T12:28:45.040Z,2.47
2022-10-08T12:31:32.542Z,2.70
2022-10-08T12:34:04.231Z,3.22
2022-10-08T12:36:43.601Z,3.50
2022-10-08T12:39:19.790Z,5.32
2022-10-08T12:41:58.577Z,2.38
2022-10-08T12:44:40.699Z,2.85
2022-10-08T12:47:17.460Z,2.85
2022-10-08T12:49:51.084Z,2.47
2022-10-08T12:54:51.959Z,2.33
2022-10-08T12:57:23.819Z,0.68
2022-10-08T12:59:52.521Z,1.70
2022-10-08T13:02:28.161Z,2.05
2022-10-08T13:04:56.369Z,3.45
2022-10-08T13:07:28.923Z,1.05
2022-10-08T13:09:59.107Z,1.00
2022-10-08T13:12:27.638Z,3.38
2022-10-08T13:15:05.833Z,0.75
2022-10-08T13:17:36.119Z,4.22
2022-10-08T13:20:08.980Z,1.83
2022-10-08T13:22:38.970Z,1.87
2022-10-08T13:25:27.820Z,1.70
2022-10-08T13:28:11.293Z,2.25
2022-10-08T13:30:39.910Z,4.38
2022-10-08T13:33:16.419Z,1.33
2022-10-08T13:35:51.350Z,12.52
2022-10-08T13:38:24.550Z,3.00
2022-10-08T13:40:55.538Z,2.33
2022-10-08T13:43:25.409Z,2.15
2022-10-08T13:45:53.618Z,4.82
2022-10-08T13:48:21.829Z,2.53
2022-10-08T13:50:52.099Z,2.13
2022-10-08T13:53:22.989Z,1.83
2022-10-08T13:55:51.859Z,1.08
2022-10-08T13:58:21.448Z,3.35
2022-10-08T14:00:51.034Z,3.40
2022-10-08T14:03:19.318Z,3.60
2022-10-08T14:05:49.256Z,4.20
2022-10-08T14:08:20.600Z,6.07
2022-10-08T14:10:49.080Z,1.85
2022-10-08T14:13:17.550Z,4.05
2022-10-08T14:15:45.663Z,3.45
2022-10-08T14:18:15.099Z,0.80
2022-10-08T14:20:43.690Z,0.50
2022-10-08T14:23:14.205Z,1.27
2022-10-08T14:25:42.319Z,1.13
2022-10-08T14:28:10.449Z,3.63
2022-10-08T14:30:38.629Z,2.45
2022-10-08T14:33:11.199Z,1.30
2022-10-08T14:35:41.475Z,1.95
2022-10-08T14:38:09.780Z,2.40
2022-10-08T14:40:39.004Z,0.77
2022-10-08T14:43:07.119Z,0.10
2022-10-08T14:45:35.381Z,2.50
2022-10-08T14:48:03.819Z,2.55
2022-10-08T14:50:31.979Z,1.23
2022-10-08T14:53:01.401Z,3.33
2022-10-08T14:55:29.579Z,1.95
2022-10-08T14:57:57.599Z,0.80
2022-10-08T15:00:25.745Z,8.80
2022-10-08T15:02:53.792Z,26.27
2022-10-08T15:05:21.947Z,3.50
2022-10-08T15:07:50.483Z,3.35
2022-10-08T15:10:20.119Z,0.43
2022-10-08T15:12:48.476Z,1.95
2022-10-08T15:15:19.778Z,0.75
2022-10-08T15:17:48.677Z,4.35
2022-10-08T15:20:17.350Z,21.77
2022-10-08T15:22:45.840Z,29.75
2022-10-08T15:25:14.680Z,57.47
2022-10-08T15:27:44.360Z,131.88
2022-10-08T15:30:13.700Z,205.05
2022-10-08T15:32:42.221Z,119.22
2022-10-08T15:35:10.530Z,78.78
2022-10-08T15:37:39.000Z,33.53
2022-10-08T15:40:07.741Z,10.35
2022-10-08T15:42:35.910Z,3.58
2022-10-08T15:45:05.869Z,3.88
2022-10-08T15:47:34.059Z,2.75
2022-10-08T15:50:02.289Z,3.30
2022-10-08T15:52:30.540Z,6.97
2022-10-08T15:54:58.610Z,18.65
2022-10-08T15:57:26.889Z,15.10
2022-10-08T15:59:55.670Z,24.13
2022-10-08T16:02:25.414Z,62.20
2022-10-08T16:04:54.193Z,327.70
2022-10-08T16:07:22.281Z,241.75
2022-10-08T16:09:50.770Z,131.43
2022-10-08T16:12:18.881Z,95.75
2022-10-08T16:14:46.960Z,120.03
2022-10-08T16:17:15.085Z,62.78
2022-10-08T16:19:44.599Z,45.35
2022-10-08T16:22:12.669Z,34.38
2022-10-08T16:24:40.978Z,21.80
2022-10-08T16:27:09.110Z,18.98
2022-10-08T16:29:37.189Z,10.48
2022-10-08T16:32:05.340Z,3.75
2022-10-08T16:34:33.503Z,2.95
2022-10-08T16:37:04.895Z,3.22
2022-10-08T16:39:33.050Z,6.80
2022-10-08T16:42:01.190Z,3.83
2022-10-08T16:44:29.378Z,2.20
2022-10-08T16:46:57.471Z,2.28
2022-10-08T16:49:27.095Z,4.15
2022-10-08T16:51:58.001Z,5.57
2022-10-08T16:54:28.799Z,6.13
2022-10-08T16:56:57.700Z,0.90
2022-10-08T16:59:27.700Z,3.83
2022-10-08T17:01:58.694Z,1.48
2022-10-08T17:04:28.849Z,1.20
2022-10-08T17:06:57.011Z,2.65
2022-10-08T17:09:25.655Z,3.70
2022-10-08T17:11:55.140Z,2.17
2022-10-08T17:14:23.579Z,3.83
2022-10-08T17:16:51.812Z,2.97
2022-10-08T17:19:20.300Z,2.08
2022-10-08T17:21:48.371Z,1.55
2022-10-08T17:24:16.544Z,1.60
2022-10-08T17:26:45.870Z,2.88
2022-10-08T17:29:15.409Z,6.35
2022-10-08T17:31:43.646Z,1.13
2022-10-08T17:34:12.467Z,0.80
2022-10-08T17:36:43.884Z,1.75
2022-10-08T17:39:13.936Z,2.70
2022-10-08T17:41:43.779Z,3.58
2022-10-08T17:44:12.413Z,3.97
2022-10-08T17:46:45.619Z,4.50
2022-10-08T17:49:14.470Z,1.90
2022-10-08T17:51:42.809Z,3.45
2022-10-08T17:54:13.860Z,3.25
2022-10-08T17:56:42.196Z,1.13
2022-10-08T17:59:12.889Z,5.18
2022-10-08T18:01:45.020Z,3.13
2022-10-08T18:04:16.692Z,4.50
2022-10-08T18:06:47.119Z,6.80
2022-10-08T18:09:18.677Z,5.25
2022-10-08T18:11:48.538Z,3.92
2022-10-08T18:14:17.479Z,1.65
2022-10-08T18:16:48.492Z,4.63
2022-10-08T18:19:17.867Z,4.78
2022-10-08T18:21:46.399Z,2.78
2022-10-08T18:24:14.658Z,2.70
2022-10-08T18:26:43.420Z,1.00
2022-10-08T18:29:13.689Z,1.48
2022-10-08T18:31:44.065Z,1.70
2022-10-08T18:34:17.089Z,4.60
2022-10-08T18:36:46.032Z,6.03
2022-10-08T18:39:15.810Z,3.47
2022-10-08T18:41:45.639Z,3.65
2022-10-08T18:44:15.579Z,3.45
2022-10-08T18:46:45.025Z,4.13
2022-10-08T18:49:16.602Z,3.15
2022-10-08T18:51:45.159Z,4.22
2022-10-08T18:54:13.410Z,3.78
2022-10-08T18:56:41.869Z,1.58
2022-10-08T18:59:13.146Z,2.63
2022-10-08T19:01:43.717Z,9.25
2022-10-08T19:04:15.723Z,3.80
2022-10-08T19:06:45.279Z,4.35
2022-10-08T19:09:14.004Z,3.20
2022-10-08T19:11:45.300Z,1.42
2022-10-08T19:14:15.608Z,2.50
2022-10-08T19:16:44.549Z,4.10
2022-10-08T19:19:17.250Z,2.70
2022-10-08T19:21:45.820Z,1.40
2022-10-08T19:24:16.453Z,2.45
2022-10-08T19:26:45.856Z,2.47
2022-10-08T19:29:16.541Z,4.75
2022-10-08T19:31:47.585Z,4.18
2022-10-08T19:34:19.684Z,8.15
2022-10-08T19:36:48.526Z,11.43
2022-10-08T19:39:18.999Z,7.65
2022-10-08T19:41:47.260Z,5.93
2022-10-08T19:44:16.562Z,4.05
2022-10-08T19:46:45.260Z,3.15
2022-10-08T19:49:13.731Z,4.90
2022-10-08T19:51:44.045Z,1.92
2022-10-08T19:54:12.569Z,3.45
2022-10-08T19:56:41.259Z,1.88
2022-10-08T19:59:11.474Z,2.00
2022-10-08T20:01:41.391Z,4.13
2022-10-08T20:04:10.919Z,2.38
2022-10-08T20:06:41.497Z,3.75
2022-10-08T20:09:13.267Z,3.05
2022-10-08T20:11:42.392Z,3.55
2022-10-08T20:14:10.614Z,6.80
2022-10-08T20:16:41.217Z,3.33
2022-10-08T20:19:15.319Z,1.58
2022-10-08T20:21:43.609Z,1.67
2022-10-08T20:24:13.050Z,2.72
2022-10-08T20:26:42.739Z,2.03
2022-10-08T20:29:13.143Z,1.48
2022-10-08T20:31:43.412Z,1.20
2022-10-08T20:34:14.177Z,0.98
2022-10-08T20:36:42.279Z,7.03
2022-10-08T20:39:13.859Z,1.27
2022-10-08T20:41:42.267Z,0.98
2022-10-08T20:44:10.719Z,2.15
2022-10-08T20:46:39.726Z,2.50
2022-10-08T20:49:08.202Z,2.95
2022-10-08T20:51:38.958Z,5.53
2022-10-08T20:54:09.109Z,1.67
2022-10-08T20:56:40.620Z,1.40
2022-10-08T20:59:09.188Z,1.38
2022-10-08T21:01:39.273Z,1.35
2022-10-08T21:04:08.814Z,3.47
2022-10-08T21:06:39.039Z,2.35
2022-10-08T21:09:07.805Z,3.30
2022-10-08T21:11:38.764Z,1.80
2022-10-08T21:14:08.985Z,0.85
2022-10-08T21:16:39.622Z,0.90
2022-10-08T21:19:10.992Z,0.43
2022-10-08T21:21:39.577Z,2.08
2022-10-08T21:24:08.173Z,1.80
2022-10-08T21:26:39.941Z,4.20
2022-10-08T21:29:10.147Z,3.10
2022-10-08T21:31:40.597Z,0.70
2022-10-08T21:34:09.131Z,2.28
2022-10-08T21:36:39.353Z,1.70
2022-10-08T21:39:09.161Z,2.65
2022-10-08T21:41:39.521Z,2.30
2022-10-08T21:44:09.233Z,2.58
2022-10-08T21:46:39.531Z,0.70
2022-10-08T21:49:09.232Z,0.57
2022-10-08T21:51:37.931Z,1.20
2022-10-08T21:54:07.593Z,8.40
2022-10-08T21:56:37.696Z,1.85
2022-10-08T21:59:08.801Z,2.42
2022-10-08T22:01:39.398Z,0.45
2022-10-08T22:04:11.240Z,2.45
2022-10-08T22:06:41.504Z,0.73
2022-10-08T22:09:12.522Z,0.40
2022-10-08T22:11:41.271Z,4.55
2022-10-08T22:14:10.821Z,1.10
2022-10-08T22:16:39.246Z,2.20
2022-10-08T22:19:07.645Z,2.28
2022-10-08T22:21:37.941Z,3.28
2022-10-08T22:24:06.701Z,1.08
2022-10-08T22:26:37.103Z,0.60
2022-10-08T22:29:06.512Z,1.45
2022-10-08T22:31:36.121Z,2.00
2022-10-08T22:34:04.650Z,0.43
2022-10-08T22:36:34.653Z,0.70
2022-10-08T22:39:02.873Z,0.88
2022-10-08T22:41:33.295Z,1.20
2022-10-08T22:44:02.721Z,0.40
2022-10-08T22:46:32.841Z,0.32
2022-10-08T22:49:04.941Z,0.38
2022-10-08T22:51:33.180Z,2.10
2022-10-08T22:54:02.154Z,1.08
2022-10-08T22:56:32.231Z,0.68
2022-10-08T22:59:01.161Z,0.65
2022-10-08T23:01:31.042Z,0.75
2022-10-08T23:03:59.512Z,0.80
2022-10-08T23:06:31.322Z,0.60
2022-10-08T23:09:01.184Z,1.10
2022-10-08T23:11:31.679Z,3.35
2022-10-08T23:14:01.690Z,0.75
2022-10-08T23:16:32.178Z,0.73
2022-10-08T23:19:01.941Z,1.63
2022-10-08T23:21:31.712Z,0.65
2022-10-08T23:24:00.303Z,3.78
2022-10-08T23:26:29.317Z,0.50
2022-10-08T23:28:59.541Z,0.55
2022-10-08T23:31:30.065Z,2.67
2022-10-08T23:33:58.873Z,0.77
2022-10-08T23:36:29.702Z,0.68
2022-10-08T23:38:59.641Z,0.68
2022-10-08T23:41:29.047Z,1.85
2022-10-08T23:43:58.200Z,0.65
2022-10-08T23:46:28.521Z,1.67
2022-10-08T23:48:57.519Z,3.05
2022-10-08T23:51:28.042Z,0.52
2022-10-08T23:53:56.439Z,2.72
2022-10-08T23:56:26.180Z,0.73
2022-10-08T23:58:54.441Z,1.05
